Time;durP1;ratioP1;P1;durP2;ratioP2;P2;SDS_P1;SDS_P2;PMS_P1;PMS_P2;Temp;Humidity;BMP_temperature;BMP_pressure;BME280_temperature;BME280_humidity;BME280_pressure;Samples;Min_cycle;Max_cycle;Signal;HPM_P1;HPM_P2
2021/08/20 00:01:36;;;;;;;13.72;5.55;;;;;;;18.92;84.54;100538.73;1909372;75;21146;-61
2021/08/20 00:04:06;;;;;;;12.70;4.92;;;;;;;18.90;84.77;100537.05;1909591;75;21040;-61
2021/08/20 00:06:35;;;;;;;12.50;4.95;;;;;;;18.90;84.78;100538.38;1909352;75;21130;-60
2021/08/20 00:09:04;;;;;;;12.75;5.22;;;;;;;18.91;84.77;100532.55;1909574;75;21535;-60
2021/08/20 00:11:33;;;;;;;15.13;5.62;;;;;;;18.89;84.85;100530.00;1909487;75;21142;-60
2021/08/20 00:14:03;;;;;;;15.20;7.17;;;;;;;18.85;85.10;100528.55;1909264;75;21060;-61
2021/08/20 00:16:31;;;;;;;13.98;6.70;;;;;;;18.84;85.33;100525.99;1909519;75;21040;-61
2021/08/20 00:19:01;;;;;;;13.15;5.70;;;;;;;18.84;85.36;100529.99;1909514;75;21150;-60
2021/08/20 00:21:30;;;;;;;12.07;5.62;;;;;;;18.83;85.29;100528.28;1909437;75;21484;-60
2021/08/20 00:23:59;;;;;;;14.40;6.92;;;;;;;18.84;85.22;100527.33;1909434;75;21486;-60
2021/08/20 00:26:28;;;;;;;9.65;6.12;;;;;;;18.83;85.15;100528.28;1909529;74;21053;-61
2021/08/20 00:28:57;;;;;;;12.13;5.80;;;;;;;18.81;85.18;100527.09;1909678;75;21128;-60
2021/08/20 00:31:25;;;;;;;13.58;5.78;;;;;;;18.79;85.15;100527.63;1886994;76;21554;-61
2021/08/20 00:33:54;;;;;;;12.75;6.40;;;;;;;18.77;85.13;100518.91;1918698;75;21044;-60
2021/08/20 00:36:23;;;;;;;11.97;5.95;;;;;;;18.76;85.11;100527.89;1909531;75;21009;-60
2021/08/20 00:38:52;;;;;;;12.13;6.33;;;;;;;18.73;85.13;100526.78;1909559;75;21056;-60
2021/08/20 00:41:20;;;;;;;15.05;6.87;;;;;;;18.72;85.22;100522.43;1909465;75;21049;-61
2021/08/20 00:43:50;;;;;;;16.32;7.30;;;;;;;18.69;85.33;100519.98;1909558;75;21013;-60
2021/08/20 00:46:18;;;;;;;13.08;7.50;;;;;;;18.70;85.48;100519.00;1885133;76;21488;-60
2021/08/20 00:48:47;;;;;;;14.90;7.75;;;;;;;18.70;85.59;100517.67;1918699;75;21153;-61
2021/08/20 00:51:19;;;;;;;14.85;8.45;;;;;;;18.67;85.81;100512.59;1909453;75;21028;-60
2021/08/20 00:53:49;;;;;;;17.90;9.38;;;;;;;18.65;85.96;100517.20;1909367;75;21029;-61
2021/08/20 00:56:19;;;;;;;14.98;8.48;;;;;;;18.61;86.23;100521.91;1886964;76;21618;-60
2021/08/20 00:58:49;;;;;;;15.05;7.28;;;;;;;18.60;86.58;100519.36;1918612;74;21589;-61
2021/08/20 01:01:21;;;;;;;15.97;8.40;;;;;;;18.57;86.49;100521.76;1887480;76;21065;-60
2021/08/20 01:03:50;;;;;;;26.07;14.25;;;;;;;18.54;86.59;100524.67;1918690;75;21495;-61
2021/08/20 01:06:18;;;;;;;24.85;16.12;;;;;;;18.50;86.69;100525.39;1885015;75;21116;-61
2021/08/20 01:08:47;;;;;;;14.87;10.60;;;;;;;18.50;86.64;100528.06;1910059;75;21096;-60
2021/08/20 01:11:19;;;;;;;17.92;11.12;;;;;;;18.50;86.72;100532.55;1908502;75;21126;-61
2021/08/20 01:13:47;;;;;;;22.37;11.93;;;;;;;18.46;86.89;100529.27;1908489;75;21076;-61
2021/08/20 01:16:16;;;;;;;22.65;11.18;;;;;;;18.48;86.91;100540.66;1908499;75;21135;-60
2021/08/20 01:18:45;;;;;;;15.15;6.75;;;;;;;18.49;86.74;100539.67;1908241;74;21123;-61
2021/08/20 01:21:17;;;;;;;15.75;6.60;;;;;;;18.50;86.58;100550.72;1908488;75;21144;-61
2021/08/20 01:24:00;;;;;;;12.50;6.97;;;;;;;18.48;86.53;100558.45;1907713;75;21164;-60
2021/08/20 01:26:32;;;;;;;11.00;5.90;;;;;;;18.44;86.44;100556.98;1908688;75;21102;-60
2021/08/20 01:29:01;;;;;;;12.35;6.65;;;;;;;18.40;86.42;100556.36;1908517;75;21115;-61
2021/08/20 01:31:30;;;;;;;18.07;7.95;;;;;;;18.36;86.58;100550.90;1908697;75;21151;-61
2021/08/20 01:33:59;;;;;;;16.15;6.40;;;;;;;18.33;86.81;100555.11;1908578;75;21060;-61
2021/08/20 01:36:28;;;;;;;11.75;7.08;;;;;;;18.31;87.10;100555.25;1908591;75;21068;-60
2021/08/20 01:38:59;;;;;;;12.85;6.60;;;;;;;18.29;87.22;100555.83;1908186;75;21153;-60
2021/08/20 01:41:29;;;;;;;14.90;6.55;;;;;;;18.27;87.20;100552.92;1908582;75;21531;-61
2021/08/20 01:44:01;;;;;;;15.48;8.20;;;;;;;18.27;87.04;100556.92;1908672;74;21069;-61
2021/08/20 01:46:31;;;;;;;16.82;8.20;;;;;;;18.28;86.93;100553.30;1908547;75;21480;-60
2021/08/20 01:49:01;;;;;;;20.15;8.40;;;;;;;18.27;87.05;100552.42;1908606;75;21037;-61
2021/08/20 01:51:31;;;;;;;21.85;9.13;;;;;;;18.28;87.08;100550.14;1908718;75;21005;-61
2021/08/20 01:54:03;;;;;;;20.48;8.68;;;;;;;18.28;87.07;100547.48;1908472;75;21068;-61
2021/08/20 01:56:35;;;;;;;21.57;9.15;;;;;;;18.25;87.15;100546.36;1908626;75;21839;-61
2021/08/20 01:59:11;;;;;;;20.75;10.18;;;;;;;18.27;87.10;100556.92;1908051;75;21076;-61
2021/08/20 02:01:41;;;;;;;20.25;10.18;;;;;;;18.27;87.03;100555.58;1908700;75;21527;-61
2021/08/20 02:04:10;;;;;;;21.30;10.08;;;;;;;18.26;87.01;100555.20;1908594;75;21040;-61
2021/08/20 02:06:40;;;;;;;20.17;10.40;;;;;;;18.25;87.02;100553.03;1908481;75;21045;-62
2021/08/20 02:09:09;;;;;;;20.57;11.05;;;;;;;18.24;87.03;100557.12;1915750;75;21483;-60
2021/08/20 02:11:40;;;;;;;19.30;10.00;;;;;;;18.22;87.08;100561.27;1918919;75;21044;-60
2021/08/20 02:14:10;;;;;;;21.77;10.00;;;;;;;18.18;87.13;100558.93;1918742;73;21008;-60
2021/08/20 02:16:39;;;;;;;19.57;9.35;;;;;;;18.14;87.18;100552.97;1918707;75;21052;-60
2021/08/20 02:19:10;;;;;;;19.60;9.23;;;;;;;18.12;87.28;100546.42;1917714;75;21142;-60
2021/08/20 02:21:39;;;;;;;23.90;11.60;;;;;;;18.13;87.43;100544.14;1918922;75;21486;-61
2021/08/20 02:24:09;;;;;;;19.57;9.48;;;;;;;18.13;87.63;100534.81;1917529;75;21091;-60
2021/08/20 02:26:38;;;;;;;20.60;9.80;;;;;;;18.14;87.75;100537.83;1909623;75;21468;-60
2021/08/20 02:29:07;;;;;;;23.32;10.10;;;;;;;18.15;87.86;100541.37;1909604;75;21080;-60
2021/08/20 02:31:36;;;;;;;25.65;10.28;;;;;;;18.15;87.99;100536.04;1885165;75;21120;-61
2021/08/20 02:34:05;;;;;;;21.90;10.60;;;;;;;18.13;88.01;100542.80;1918832;75;21092;-60
2021/08/20 02:36:34;;;;;;;15.40;9.28;;;;;;;18.14;87.98;100547.16;1887053;76;21019;-61
2021/08/20 02:39:03;;;;;;;23.62;9.70;;;;;;;18.14;88.00;100546.31;1919680;75;21133;-60
2021/08/20 02:41:32;;;;;;;19.07;9.28;;;;;;;18.14;87.94;100543.16;1918750;74;21514;-60
2021/08/20 02:44:02;;;;;;;32.15;16.73;;;;;;;18.17;87.91;100548.77;1909605;75;21566;-61
2021/08/20 02:46:31;;;;;;;19.17;9.18;;;;;;;18.19;87.91;100549.98;1909467;75;21483;-61
2021/08/20 02:49:01;;;;;;;17.40;9.13;;;;;;;18.19;88.04;100552.66;1909683;75;21114;-60
2021/08/20 02:51:30;;;;;;;20.20;10.90;;;;;;;18.20;88.07;100549.00;1909469;75;21061;-61
2021/08/20 02:53:59;;;;;;;24.15;14.13;;;;;;;18.21;88.09;100544.05;1885263;76;21574;-61
2021/08/20 02:56:28;;;;;;;31.33;21.05;;;;;;;18.23;87.95;100539.46;1918713;75;21048;-61
2021/08/20 02:59:05;;;;;;;20.88;12.28;;;;;;;18.26;87.89;100548.54;1918464;75;21665;-60
2021/08/20 03:01:34;;;;;;;20.60;9.93;;;;;;;18.27;87.92;100559.09;1885331;76;21457;-60
2021/08/20 03:04:04;;;;;;;14.70;9.33;;;;;;;18.28;87.91;100556.81;1919196;73;21078;-60
2021/08/20 03:06:34;;;;;;;17.87;9.65;;;;;;;18.29;87.84;100557.64;1918812;75;21016;-60
2021/08/20 03:09:03;;;;;;;20.68;10.65;;;;;;;18.32;87.92;100557.43;1904788;75;21057;-60
2021/08/20 03:11:33;;;;;;;20.52;10.30;;;;;;;18.38;87.93;100566.29;1906754;75;21048;-60
2021/08/20 03:14:02;;;;;;;23.85;11.53;;;;;;;18.45;87.93;100566.70;1908698;75;21131;-61
2021/08/20 03:16:33;;;;;;;23.73;16.35;;;;;;;18.51;87.86;100572.40;1908036;75;21174;-60
2021/08/20 03:19:03;;;;;;;25.57;14.75;;;;;;;18.56;87.59;100575.23;1908321;75;21080;-60
2021/08/20 03:21:32;;;;;;;26.50;14.25;;;;;;;18.63;87.48;100576.47;1908535;75;21060;-60
2021/08/20 03:24:03;;;;;;;40.92;28.30;;;;;;;18.69;87.32;100585.33;1908519;75;21100;-60
2021/08/20 03:26:34;;;;;;;32.17;19.48;;;;;;;18.74;87.00;100584.97;1908246;75;21561;-60
2021/08/20 03:29:03;;;;;;;24.45;11.25;;;;;;;18.77;86.83;100584.25;1908670;75;21369;-60
2021/08/20 03:31:34;;;;;;;17.77;8.90;;;;;;;18.83;86.73;100587.84;1907760;75;21186;-60
2021/08/20 03:34:04;;;;;;;19.10;7.60;;;;;;;18.88;86.57;100584.80;1908554;75;21119;-60
2021/08/20 03:36:33;;;;;;;14.23;7.00;;;;;;;18.98;86.48;100582.27;1908496;75;21122;-60
2021/08/20 03:39:03;;;;;;;20.30;7.15;;;;;;;19.04;86.14;100579.98;1906687;75;21583;-59
2021/08/20 03:41:34;;;;;;;15.23;7.83;;;;;;;19.15;85.92;100580.99;1908449;75;21142;-59
2021/08/20 03:44:10;;;;;;;15.85;6.65;;;;;;;19.28;85.79;100583.06;1908167;75;21080;-59
2021/08/20 03:46:43;;;;;;;20.77;7.17;;;;;;;19.45;85.76;100579.06;1906656;75;21089;-61
2021/08/20 03:49:12;;;;;;;13.98;6.45;;;;;;;19.63;85.56;100576.27;1908526;75;21554;-59
2021/08/20 03:51:40;;;;;;;18.75;8.10;;;;;;;19.78;85.29;100578.72;1908517;75;21114;-60
2021/08/20 03:54:11;;;;;;;17.80;8.25;;;;;;;19.84;84.94;100582.22;1906502;75;21132;-60
2021/08/20 03:56:40;;;;;;;14.33;6.53;;;;;;;20.02;84.22;100590.09;1908670;75;21468;-60
2021/08/20 03:59:19;;;;;;;16.95;6.90;;;;;;;20.28;83.81;100592.45;1908079;75;21171;-60
2021/08/20 04:01:48;;;;;;;19.98;7.08;;;;;;;20.59;83.48;100584.57;1908744;75;21523;-60
2021/08/20 04:04:19;;;;;;;13.13;5.87;;;;;;;20.90;83.10;100592.73;1908357;75;21227;-59
2021/08/20 04:06:49;;;;;;;11.95;5.03;;;;;;;21.20;82.59;100595.44;1906901;75;21089;-60
2021/08/20 04:09:18;;;;;;;9.25;5.17;;;;;;;21.45;81.73;100592.02;1910071;75;21060;-60
2021/08/20 04:11:58;;;;;;;9.63;4.72;;;;;;;21.58;81.16;100587.27;1885162;75;21495;-60
2021/08/20 04:14:37;;;;;;;10.13;4.78;;;;;;;21.65;80.23;100584.88;1850093;76;21145;-60
2021/08/20 04:17:06;;;;;;;13.55;4.58;;;;;;;21.77;79.98;100589.66;1954475;73;21498;-60
2021/08/20 04:19:36;;;;;;;10.43;3.90;;;;;;;21.89;79.20;100593.08;1938318;73;21036;-60
2021/08/20 04:22:05;;;;;;;10.55;4.03;;;;;;;22.08;79.22;100589.11;1919638;74;21107;-60
2021/08/20 04:24:35;;;;;;;13.53;4.72;;;;;;;22.31;79.01;100585.70;1918765;75;21040;-60
2021/08/20 04:27:06;;;;;;;11.45;4.87;;;;;;;22.62;78.50;100583.40;1904701;75;21056;-60
2021/08/20 04:29:43;;;;;;;9.35;4.28;;;;;;;22.93;77.95;100582.73;1898851;75;21248;-60
2021/08/20 04:32:29;;;;;;;10.95;5.03;;;;;;;23.32;77.38;100578.12;1909417;75;21131;-61
2021/08/20 04:34:59;;;;;;;12.10;4.30;;;;;;;23.77;76.44;100571.13;1905867;75;21107;-60
2021/08/20 04:37:33;;;;;;;10.80;4.55;;;;;;;24.07;75.63;100574.55;1907418;75;21138;-60
2021/08/20 04:40:08;;;;;;;9.63;4.60;;;;;;;24.41;75.04;100564.45;1907301;75;21134;-60
2021/08/20 04:42:55;;;;;;;15.43;5.95;;;;;;;24.75;74.63;100563.75;1909371;75;21101;-62
2021/08/20 04:45:28;;;;;;;11.28;5.30;;;;;;;25.02;73.76;100545.27;1881755;76;21113;-60
2021/08/20 04:48:05;;;;;;;10.48;5.15;;;;;;;25.10;72.33;100534.52;1917390;75;21109;-60
2021/08/20 04:50:51;;;;;;;10.63;5.17;;;;;;;25.25;72.02;100526.75;1873305;75;21063;-60
2021/08/20 04:53:22;;;;;;;10.70;3.58;;;;;;;25.34;70.74;100511.45;1883135;76;21224;-61
2021/08/20 04:55:55;;;;;;;7.30;4.33;;;;;;;25.46;69.96;100506.62;1915665;75;21601;-60
2021/08/20 04:58:23;;;;;;;11.60;4.17;;;;;;;25.58;68.92;100526.88;1918787;75;21048;-60
2021/08/20 05:00:53;;;;;;;16.02;4.22;;;;;;;25.77;69.00;100529.30;1918590;75;21523;-60
2021/08/20 05:03:23;;;;;;;9.85;3.50;;;;;;;25.97;68.43;100529.90;1918777;75;21491;-60
2021/08/20 05:05:51;;;;;;;8.58;3.77;;;;;;;26.35;68.03;100534.83;1918600;75;21533;-61
2021/08/20 05:08:20;;;;;;;7.42;3.80;;;;;;;26.77;67.05;100543.29;1918753;75;21142;-60
2021/08/20 05:10:49;;;;;;;7.97;3.58;;;;;;;27.19;66.38;100542.69;1918699;75;21089;-60
2021/08/20 05:13:18;;;;;;;7.72;3.33;;;;;;;27.25;65.49;100545.55;1918859;75;21390;-60
2021/08/20 05:15:46;;;;;;;8.20;3.22;;;;;;;27.16;65.18;100552.83;1918667;75;21569;-60
2021/08/20 05:18:15;;;;;;;8.85;3.52;;;;;;;27.05;64.07;100547.80;1918655;75;21000;-60
2021/08/20 05:20:44;;;;;;;6.90;3.08;;;;;;;26.63;63.76;100542.63;1918540;75;21531;-60
2021/08/20 05:23:13;;;;;;;8.93;3.72;;;;;;;26.01;64.65;100565.48;1909418;75;21041;-60
2021/08/20 05:25:42;;;;;;;8.98;3.83;;;;;;;25.41;65.55;100578.01;1909432;75;21147;-60
2021/08/20 05:28:12;;;;;;;8.83;3.55;;;;;;;24.87;66.60;100572.44;1909411;75;21172;-60
2021/08/20 05:30:42;;;;;;;9.65;3.92;;;;;;;24.46;67.68;100546.00;1909538;75;21106;-60
2021/08/20 05:33:10;;;;;;;8.00;4.22;;;;;;;24.08;68.59;100547.98;1885096;76;21029;-60
2021/08/20 05:35:40;;;;;;;13.58;3.45;;;;;;;23.80;69.30;100554.75;1918640;75;21024;-60
2021/08/20 05:38:08;;;;;;;10.80;3.85;;;;;;;23.57;70.14;100556.11;1909412;75;21554;-60
2021/08/20 05:40:37;;;;;;;15.95;4.50;;;;;;;23.35;70.90;100553.30;1909400;74;21119;-60
2021/08/20 05:43:06;;;;;;;13.58;3.90;;;;;;;23.20;71.21;100562.33;1909414;75;21053;-60
2021/08/20 05:45:37;;;;;;;21.87;5.97;;;;;;;23.08;71.64;100564.36;1909425;75;21508;-61
2021/08/20 05:48:07;;;;;;;13.55;5.65;;;;;;;22.99;72.06;100569.23;1909532;75;21039;-60
2021/08/20 05:50:39;;;;;;;12.98;5.90;;;;;;;22.91;72.59;100577.50;1909525;75;21032;-60
2021/08/20 05:53:07;;;;;;;11.08;4.65;;;;;;;22.85;73.01;100579.91;1909409;75;21536;-60
2021/08/20 05:55:36;;;;;;;10.35;3.85;;;;;;;22.79;73.46;100571.09;1909421;75;21025;-60
2021/08/20 05:58:05;;;;;;;9.85;4.10;;;;;;;22.71;74.00;100573.98;1884971;76;21037;-60
2021/08/20 06:00:35;;;;;;;16.05;5.15;;;;;;;22.66;74.40;100582.95;1918593;74;21488;-60
2021/08/20 06:03:05;;;;;;;12.47;4.83;;;;;;;22.63;74.83;100581.92;1908999;75;21134;-60
2021/08/20 06:05:34;;;;;;;12.68;4.20;;;;;;;22.58;75.20;100570.76;1909537;75;21515;-60
2021/08/20 06:08:04;;;;;;;10.68;4.37;;;;;;;22.57;75.50;100559.66;1885202;75;21558;-60
2021/08/20 06:10:33;;;;;;;12.68;4.15;;;;;;;22.56;75.66;100548.59;1917897;74;21044;-60
2021/08/20 06:13:03;;;;;;;7.70;3.80;;;;;;;22.56;75.73;100545.91;1908596;75;21149;-60
2021/08/20 06:15:31;;;;;;;13.35;4.60;;;;;;;22.59;75.82;100546.94;1908602;75;21021;-60
2021/08/20 06:18:00;;;;;;;18.12;4.72;;;;;;;22.61;75.81;100543.66;1908585;75;21096;-60
2021/08/20 06:20:29;;;;;;;12.05;4.72;;;;;;;22.64;75.85;100557.27;1908568;75;21107;-60
2021/08/20 06:22:57;;;;;;;15.80;4.70;;;;;;;22.65;75.95;100570.55;1908586;75;21065;-61
2021/08/20 06:25:26;;;;;;;13.72;4.95;;;;;;;22.68;76.16;100578.30;1908550;75;21622;-60
2021/08/20 06:27:55;;;;;;;14.13;5.08;;;;;;;22.66;76.62;100572.73;1908852;75;21492;-60
2021/08/20 06:30:24;;;;;;;16.30;7.33;;;;;;;22.59;77.02;100580.48;1908613;75;21064;-60
2021/08/20 06:32:52;;;;;;;15.98;6.53;;;;;;;22.52;77.43;100590.09;1908588;75;21055;-60
2021/08/20 06:35:21;;;;;;;13.48;5.33;;;;;;;22.47;77.64;100589.69;1908586;75;21060;-60
2021/08/20 06:37:50;;;;;;;12.47;4.92;;;;;;;22.43;77.95;100586.91;1908472;75;21092;-60
2021/08/20 06:40:19;;;;;;;12.58;5.33;;;;;;;22.40;78.12;100591.23;1908689;75;21060;-60
2021/08/20 06:42:47;;;;;;;13.48;5.03;;;;;;;22.39;78.28;100586.37;1908595;75;21040;-60
2021/08/20 06:45:16;;;;;;;13.40;5.17;;;;;;;22.43;78.33;100582.88;1908670;75;21118;-60
2021/08/20 06:47:45;;;;;;;18.05;5.03;;;;;;;22.48;78.52;100576.61;1908548;75;21053;-60
2021/08/20 06:50:13;;;;;;;12.45;4.92;;;;;;;22.52;78.58;100584.72;1908482;75;21094;-61
2021/08/20 06:52:42;;;;;;;16.80;5.20;;;;;;;22.54;78.60;100593.50;1908578;75;21045;-60
2021/08/20 06:55:11;;;;;;;11.48;4.67;;;;;;;22.56;78.61;100595.55;1908700;75;21123;-60
2021/08/20 06:57:40;;;;;;;11.95;5.00;;;;;;;22.54;78.64;100596.19;1908602;75;21132;-60
2021/08/20 07:00:10;;;;;;;9.43;4.15;;;;;;;22.41;78.36;100594.25;1908543;74;21119;-60
2021/08/20 07:02:46;;;;;;;11.78;4.95;;;;;;;22.33;78.20;100595.80;1908567;75;21017;-61
2021/08/20 07:05:16;;;;;;;12.60;5.20;;;;;;;22.31;78.33;100593.75;1908549;75;21045;-60
2021/08/20 07:07:47;;;;;;;14.30;4.50;;;;;;;22.28;78.51;100591.37;1908657;75;21107;-60
2021/08/20 07:10:17;;;;;;;12.95;4.20;;;;;;;22.27;78.55;100592.34;1908641;75;21111;-60
2021/08/20 07:12:46;;;;;;;13.80;6.28;;;;;;;22.27;78.64;100587.48;1915387;75;21056;-60
2021/08/20 07:15:15;;;;;;;13.83;5.30;;;;;;;22.24;78.66;100580.51;1918617;75;21142;-60
2021/08/20 07:17:44;;;;;;;12.23;4.70;;;;;;;22.21;78.58;100576.78;1918712;75;21044;-60
2021/08/20 07:20:13;;;;;;;11.63;4.62;;;;;;;22.17;78.52;100563.31;1918803;75;21044;-60
2021/08/20 07:22:42;;;;;;;17.35;5.95;;;;;;;22.13;78.54;100565.89;1918674;75;21040;-60
2021/08/20 07:25:11;;;;;;;12.45;5.87;;;;;;;22.08;78.65;100549.40;1918760;75;21083;-60
2021/08/20 07:27:40;;;;;;;11.93;6.35;;;;;;;21.98;78.81;100549.36;1918585;75;21301;-61
2021/08/20 07:30:10;;;;;;;14.20;6.10;;;;;;;21.84;79.01;100561.81;1918717;75;21123;-60
2021/08/20 07:32:38;;;;;;;19.42;6.45;;;;;;;21.68;79.31;100565.02;1918843;75;21028;-60
2021/08/20 07:35:08;;;;;;;18.27;7.50;;;;;;;21.59;79.54;100588.11;1918721;75;21114;-60
2021/08/20 07:37:37;;;;;;;17.37;6.45;;;;;;;21.45;80.06;100608.55;1918698;75;21549;-60
2021/08/20 07:40:07;;;;;;;11.05;5.33;;;;;;;21.30;80.59;100612.91;1918704;75;21115;-60
2021/08/20 07:42:36;;;;;;;15.20;5.55;;;;;;;21.05;81.74;100624.87;1918747;75;21095;-60
2021/08/20 07:45:06;;;;;;;18.05;5.03;;;;;;;20.91;81.81;100615.81;1918721;75;21428;-60
2021/08/20 07:47:50;;;;;;;16.50;5.95;;;;;;;20.75;82.15;100646.55;1918811;75;21032;-60
2021/08/20 07:50:19;;;;;;;16.82;5.70;;;;;;;20.59;82.50;100630.88;1918691;75;21065;-60
2021/08/20 07:52:48;;;;;;;14.30;5.40;;;;;;;20.48;82.88;100642.12;1918617;74;21472;-60
2021/08/20 07:55:18;;;;;;;12.20;5.37;;;;;;;20.42;83.05;100683.09;1918850;75;21040;-60
2021/08/20 07:57:55;;;;;;;20.27;6.33;;;;;;;20.34;83.83;100692.20;1918831;75;21028;-60
2021/08/20 08:00:26;;;;;;;12.10;4.67;;;;;;;20.21;85.76;100679.48;1918820;75;21040;-60
2021/08/20 08:02:55;;;;;;;11.05;4.62;;;;;;;19.99;86.80;100673.20;1918681;74;21481;-60
2021/08/20 08:05:25;;;;;;;7.58;3.30;;;;;;;19.90;87.26;100661.91;1918597;74;21030;-60
2021/08/20 08:07:56;;;;;;;5.10;2.85;;;;;;;19.83;88.14;100680.73;1918681;75;21094;-60
2021/08/20 08:10:25;;;;;;;6.90;2.75;;;;;;;19.74;88.83;100708.17;1918695;75;21435;-60
2021/08/20 08:12:54;;;;;;;6.45;2.55;;;;;;;19.68;89.67;100687.61;1918587;75;21553;-60
2021/08/20 08:15:24;;;;;;;7.30;3.20;;;;;;;19.70;90.15;100653.23;1918679;75;21451;-60
2021/08/20 08:17:55;;;;;;;7.33;3.12;;;;;;;19.76;90.32;100645.62;1918562;75;21538;-60
2021/08/20 08:20:23;;;;;;;6.97;2.30;;;;;;;19.89;90.24;100640.16;1918785;75;21115;-60
2021/08/20 08:22:52;;;;;;;6.78;2.33;;;;;;;19.97;90.09;100644.39;1918909;75;21490;-60
2021/08/20 08:25:21;;;;;;;5.95;2.42;;;;;;;20.03;90.13;100627.88;1918683;74;21017;-60
2021/08/20 08:27:52;;;;;;;8.15;2.42;;;;;;;20.13;89.85;100629.31;1918823;75;21147;-60
2021/08/20 08:30:21;;;;;;;5.85;2.20;;;;;;;20.30;89.40;100625.25;1918715;75;21017;-60
2021/08/20 08:32:50;;;;;;;6.50;2.25;;;;;;;20.92;88.62;100627.73;1918687;73;21111;-60
2021/08/20 08:35:19;;;;;;;4.22;1.82;;;;;;;22.03;87.51;100614.64;1918718;75;21048;-60
2021/08/20 08:37:48;;;;;;;5.45;2.05;;;;;;;22.89;85.95;100605.49;1918943;75;21111;-60
2021/08/20 08:40:17;;;;;;;4.37;1.87;;;;;;;23.54;84.59;100615.55;1918687;75;21507;-60
2021/08/20 08:42:47;;;;;;;4.35;2.30;;;;;;;24.03;82.79;100604.94;1918615;75;21021;-61
2021/08/20 08:45:16;;;;;;;6.25;2.62;;;;;;;24.74;81.52;100617.27;1918813;74;21072;-60
2021/08/20 08:47:45;;;;;;;4.00;2.40;;;;;;;25.41;79.90;100613.05;1918652;73;21589;-60
2021/08/20 08:50:14;;;;;;;6.12;2.30;;;;;;;26.12;76.92;100611.03;1918800;75;21487;-60
2021/08/20 08:52:43;;;;;;;6.00;2.60;;;;;;;26.86;74.38;100619.25;1918671;75;21545;-60
2021/08/20 08:55:12;;;;;;;6.12;3.02;;;;;;;27.52;72.38;100631.36;1918665;75;21159;-62
2021/08/20 08:57:41;;;;;;;7.35;3.10;;;;;;;28.13;70.65;100636.19;1918748;75;21004;-60
2021/08/20 09:00:11;;;;;;;7.58;2.75;;;;;;;28.34;67.63;100635.58;1918652;75;21056;-60
2021/08/20 09:02:40;;;;;;;7.67;2.80;;;;;;;28.77;66.68;100636.80;1918756;73;21106;-60
2021/08/20 09:05:13;;;;;;;9.23;3.42;;;;;;;28.90;65.82;100628.06;1918713;75;21033;-60
2021/08/20 09:07:42;;;;;;;7.70;3.42;;;;;;;29.12;64.82;100627.70;1918685;75;21527;-60
2021/08/20 09:10:19;;;;;;;8.40;4.45;;;;;;;29.33;63.76;100618.06;1918704;75;21125;-60
2021/08/20 09:12:59;;;;;;;11.85;4.30;;;;;;;29.29;58.82;100614.01;1917848;75;21008;-60
2021/08/20 09:15:33;;;;;;;11.57;4.87;;;;;;;29.01;59.70;100618.17;1908612;75;21033;-60
2021/08/20 09:18:04;;;;;;;8.30;4.45;;;;;;;29.26;60.60;100628.79;1908632;75;21099;-60
2021/08/20 09:20:36;;;;;;;9.58;4.95;;;;;;;29.44;60.08;100628.44;1908431;75;21154;-60
2021/08/20 09:23:19;;;;;;;7.03;4.40;;;;;;;28.93;60.31;100632.30;1908733;74;21126;-60
2021/08/20 09:25:49;;;;;;;9.90;4.62;;;;;;;28.04;61.73;100640.30;1908598;75;21115;-60
2021/08/20 09:28:20;;;;;;;11.48;5.10;;;;;;;27.39;63.92;100644.06;1908498;75;21024;-60
2021/08/20 09:31:01;;;;;;;9.78;4.70;;;;;;;27.20;65.01;100647.92;1908391;75;21029;-60
2021/08/20 09:33:32;;;;;;;8.63;4.58;;;;;;;27.30;65.58;100643.74;1908766;75;21103;-60
2021/08/20 09:36:04;;;;;;;12.82;5.05;;;;;;;27.37;65.61;100655.56;1908639;75;21111;-60
2021/08/20 09:38:35;;;;;;;14.47;5.70;;;;;;;27.13;65.94;100657.73;1908505;75;21540;-60
2021/08/20 09:41:08;;;;;;;11.90;4.72;;;;;;;27.55;65.37;100653.98;1908512;75;21135;-62
2021/08/20 09:43:37;;;;;;;12.90;4.65;;;;;;;28.32;63.70;100657.41;1908309;75;21053;-60
2021/08/20 09:46:11;;;;;;;10.80;4.33;;;;;;;28.88;61.90;100647.24;1908575;75;21103;-60
2021/08/20 09:48:46;;;;;;;8.08;4.47;;;;;;;29.29;60.79;100648.77;1908601;75;21009;-60
2021/08/20 09:51:38;;;;;;;13.32;5.47;;;;;;;29.59;59.32;100656.41;1908574;75;21033;-60
2021/08/20 09:54:10;;;;;;;13.70;4.85;;;;;;;29.77;58.22;100654.71;1908627;75;21103;-60
2021/08/20 09:56:39;;;;;;;12.37;5.40;;;;;;;29.58;55.77;100654.70;1908880;75;21106;-60
2021/08/20 09:59:10;;;;;;;10.23;4.87;;;;;;;29.53;56.60;100657.16;1908571;75;21480;-60
2021/08/20 10:01:41;;;;;;;12.78;4.83;;;;;;;29.26;56.50;100660.80;1908742;75;21029;-60
2021/08/20 10:04:11;;;;;;;9.43;5.08;;;;;;;29.25;56.61;100655.08;1908575;75;21041;-61
2021/08/20 10:06:42;;;;;;;7.90;4.33;;;;;;;29.46;56.37;100656.22;1908732;75;21017;-60
2021/08/20 10:09:20;;;;;;;10.43;4.70;;;;;;;29.74;56.21;100655.08;1908684;75;21123;-60
2021/08/20 10:11:51;;;;;;;10.30;4.30;;;;;;;29.81;55.01;100661.96;1908590;75;21033;-60
2021/08/20 10:14:27;;;;;;;12.28;5.12;;;;;;;29.35;55.32;100649.89;1908678;75;21045;-60
2021/08/20 10:16:56;;;;;;;8.73;3.75;;;;;;;29.21;54.33;100653.73;1908548;75;21064;-60
2021/08/20 10:19:25;;;;;;;9.40;4.42;;;;;;;29.34;54.34;100657.69;1908697;75;21050;-60
2021/08/20 10:21:54;;;;;;;8.95;4.22;;;;;;;29.20;54.12;100658.01;1908598;75;21574;-60
2021/08/20 10:24:23;;;;;;;8.25;3.87;;;;;;;29.33;54.37;100662.28;1908657;75;21432;-60
2021/08/20 10:26:55;;;;;;;7.40;4.05;;;;;;;29.47;54.31;100667.37;1908634;75;21044;-60
2021/08/20 10:29:27;;;;;;;10.10;3.62;;;;;;;29.49;49.84;100665.31;1908683;75;21077;-61
2021/08/20 10:31:58;;;;;;;6.78;3.02;;;;;;;28.95;49.54;100679.02;1908592;75;21029;-60
2021/08/20 10:34:34;;;;;;;7.83;3.17;;;;;;;28.34;50.56;100671.61;1908592;75;21111;-60
2021/08/20 10:37:15;;;;;;;6.62;3.02;;;;;;;27.60;51.29;100675.11;1908715;75;21045;-60
2021/08/20 10:39:47;;;;;;;6.92;3.12;;;;;;;27.38;52.76;100665.34;1908492;75;21084;-60
2021/08/20 10:42:18;;;;;;;3.25;2.05;;;;;;;27.41;51.78;100677.66;1908543;75;21057;-59
2021/08/20 10:44:51;;;;;;;4.40;2.08;;;;;;;27.63;50.88;100658.03;1908706;75;21037;-59
2021/08/20 10:47:24;;;;;;;7.03;2.47;;;;;;;27.86;48.52;100660.81;1908697;75;21115;-59
2021/08/20 10:50:08;;;;;;;6.03;1.98;;;;;;;27.97;48.16;100652.85;1908559;75;21566;-60
2021/08/20 10:52:39;;;;;;;4.45;2.12;;;;;;;27.97;47.39;100652.85;1908584;75;21440;-59
2021/08/20 10:55:17;;;;;;;5.03;2.02;;;;;;;28.03;46.61;100659.42;1907911;75;21028;-59
2021/08/20 10:57:57;;;;;;;3.42;2.20;;;;;;;27.99;47.47;100656.22;1908531;75;21045;-59
2021/08/20 11:00:27;;;;;;;3.62;1.98;;;;;;;28.09;48.02;100662.28;1908490;75;21037;-60
2021/08/20 11:03:05;;;;;;;5.00;2.52;;;;;;;28.05;47.71;100649.26;1908534;75;21110;-59
2021/08/20 11:05:39;;;;;;;3.70;1.72;;;;;;;28.08;48.18;100657.87;1908592;75;21158;-59
2021/08/20 11:08:30;;;;;;;6.22;2.00;;;;;;;27.95;47.36;100658.95;1908706;75;21099;-59
2021/08/20 11:11:01;;;;;;;4.08;2.12;;;;;;;27.87;47.13;100644.09;1908474;75;21080;-59
2021/08/20 11:13:30;;;;;;;6.12;1.90;;;;;;;27.69;46.99;100637.03;1908571;75;21045;-59
2021/08/20 11:16:01;;;;;;;3.55;2.05;;;;;;;27.47;47.28;100637.27;1924677;74;21118;-60
2021/08/20 11:18:45;;;;;;;6.75;2.02;;;;;;;27.18;48.02;100636.45;1925756;74;21017;-59
2021/08/20 11:21:45;;;;;;;3.95;2.05;;;;;;;27.10;49.66;100635.12;1925583;74;21448;-62
2021/08/20 11:24:20;;;;;;;4.35;2.02;;;;;;;27.05;50.61;100636.13;1925862;74;21098;-59
2021/08/20 11:26:49;;;;;;;5.95;2.08;;;;;;;27.03;50.96;100638.16;1925877;74;21041;-59
2021/08/20 11:29:19;;;;;;;5.53;2.30;;;;;;;26.99;51.91;100634.95;1925991;74;21448;-59
2021/08/20 11:31:48;;;;;;;6.35;2.40;;;;;;;26.90;53.13;100639.51;1925656;74;21020;-60
2021/08/20 11:34:16;;;;;;;4.35;2.55;;;;;;;26.83;54.22;100632.25;1925766;73;21538;-59
2021/08/20 11:36:49;;;;;;;7.22;3.10;;;;;;;26.83;54.93;100638.49;1925785;74;21072;-60